sensor_id;sensor_type;location;lat;lon;timestamp;P1;durP1;ratioP1;P2;durP2;ratioP2
75297;SDS011;63896;45.990;18.688;2024-02-14T00:02:35;33.95;;;17.17;;
75297;SDS011;63896;45.990;18.688;2024-02-14T00:05:39;16.25;;;7.35;;
75297;SDS011;63896;45.990;18.688;2024-02-14T00:08:43;8.40;;;4.63;;
75297;SDS011;63896;45.990;18.688;2024-02-14T00:11:46;11.63;;;5.50;;
75297;SDS011;63896;45.990;18.688;2024-02-14T00:14:49;12.15;;;5.63;;
75297;SDS011;63896;45.990;18.688;2024-02-14T00:17:52;14.48;;;5.30;;
75297;SDS011;63896;45.990;18.688;2024-02-14T00:20:56;12.20;;;5.38;;
75297;SDS011;63896;45.990;18.688;2024-02-14T00:23:58;14.00;;;5.40;;
75297;SDS011;63896;45.990;18.688;2024-02-14T00:27:02;12.83;;;5.53;;
75297;SDS011;63896;45.990;18.688;2024-02-14T00:30:05;10.07;;;5.43;;
75297;SDS011;63896;45.990;18.688;2024-02-14T00:33:09;12.13;;;5.43;;
75297;SDS011;63896;45.990;18.688;2024-02-14T00:36:12;13.65;;;6.88;;
75297;SDS011;63896;45.990;18.688;2024-02-14T00:39:15;21.00;;;10.65;;
75297;SDS011;63896;45.990;18.688;2024-02-14T00:42:18;11.17;;;5.77;;
75297;SDS011;63896;45.990;18.688;2024-02-14T00:45:20;14.27;;;6.82;;
75297;SDS011;63896;45.990;18.688;2024-02-14T00:48:23;10.98;;;5.47;;
75297;SDS011;63896;45.990;18.688;2024-02-14T00:51:26;10.00;;;5.28;;
75297;SDS011;63896;45.990;18.688;2024-02-14T00:54:29;10.60;;;4.95;;
75297;SDS011;63896;45.990;18.688;2024-02-14T00:57:31;10.43;;;5.17;;
75297;SDS011;63896;45.990;18.688;2024-02-14T01:00:34;12.85;;;5.68;;
75297;SDS011;63896;45.990;18.688;2024-02-14T01:03:38;12.93;;;5.43;;
75297;SDS011;63896;45.990;18.688;2024-02-14T01:06:41;13.98;;;5.32;;
75297;SDS011;63896;45.990;18.688;2024-02-14T01:09:43;11.63;;;5.35;;
75297;SDS011;63896;45.990;18.688;2024-02-14T01:12:46;12.57;;;5.50;;
75297;SDS011;63896;45.990;18.688;2024-02-14T01:15:49;11.00;;;5.63;;
75297;SDS011;63896;45.990;18.688;2024-02-14T01:18:52;9.80;;;5.30;;
75297;SDS011;63896;45.990;18.688;2024-02-14T01:21:55;10.70;;;5.22;;
75297;SDS011;63896;45.990;18.688;2024-02-14T01:25:01;11.75;;;5.13;;
75297;SDS011;63896;45.990;18.688;2024-02-14T01:28:05;9.53;;;4.77;;
75297;SDS011;63896;45.990;18.688;2024-02-14T01:31:10;9.07;;;4.63;;
75297;SDS011;63896;45.990;18.688;2024-02-14T01:34:14;8.55;;;4.85;;
75297;SDS011;63896;45.990;18.688;2024-02-14T01:37:17;7.45;;;3.55;;
75297;SDS011;63896;45.990;18.688;2024-02-14T01:40:20;9.05;;;4.43;;
75297;SDS011;63896;45.990;18.688;2024-02-14T01:43:23;8.83;;;4.67;;
75297;SDS011;63896;45.990;18.688;2024-02-14T01:46:26;12.35;;;5.25;;
75297;SDS011;63896;45.990;18.688;2024-02-14T01:49:28;9.75;;;4.93;;
75297;SDS011;63896;45.990;18.688;2024-02-14T01:52:31;8.30;;;4.53;;
75297;SDS011;63896;45.990;18.688;2024-02-14T01:55:34;9.82;;;4.07;;
75297;SDS011;63896;45.990;18.688;2024-02-14T01:58:38;9.07;;;4.73;;
75297;SDS011;63896;45.990;18.688;2024-02-14T02:01:41;8.90;;;4.53;;
75297;SDS011;63896;45.990;18.688;2024-02-14T02:04:44;8.80;;;4.32;;
75297;SDS011;63896;45.990;18.688;2024-02-14T02:07:47;10.82;;;4.57;;
75297;SDS011;63896;45.990;18.688;2024-02-14T02:10:51;9.10;;;4.72;;
75297;SDS011;63896;45.990;18.688;2024-02-14T02:13:53;8.97;;;4.90;;
75297;SDS011;63896;45.990;18.688;2024-02-14T02:16:57;12.90;;;5.18;;
75297;SDS011;63896;45.990;18.688;2024-02-14T02:20:07;11.50;;;4.90;;
75297;SDS011;63896;45.990;18.688;2024-02-14T02:23:11;11.63;;;4.63;;
75297;SDS011;63896;45.990;18.688;2024-02-14T02:26:17;10.98;;;5.35;;
75297;SDS011;63896;45.990;18.688;2024-02-14T02:29:20;10.93;;;5.40;;
75297;SDS011;63896;45.990;18.688;2024-02-14T02:32:23;11.63;;;5.93;;
75297;SDS011;63896;45.990;18.688;2024-02-14T02:35:26;12.10;;;6.15;;
75297;SDS011;63896;45.990;18.688;2024-02-14T02:38:29;16.70;;;6.43;;
75297;SDS011;63896;45.990;18.688;2024-02-14T02:41:32;11.13;;;5.63;;
75297;SDS011;63896;45.990;18.688;2024-02-14T02:44:35;12.30;;;5.40;;
75297;SDS011;63896;45.990;18.688;2024-02-14T02:47:40;11.45;;;5.28;;
75297;SDS011;63896;45.990;18.688;2024-02-14T02:50:43;11.30;;;5.72;;
75297;SDS011;63896;45.990;18.688;2024-02-14T02:53:47;12.02;;;5.47;;
75297;SDS011;63896;45.990;18.688;2024-02-14T02:56:49;10.98;;;5.07;;
75297;SDS011;63896;45.990;18.688;2024-02-14T02:59:52;10.87;;;5.60;;
75297;SDS011;63896;45.990;18.688;2024-02-14T03:02:56;10.77;;;5.25;;
75297;SDS011;63896;45.990;18.688;2024-02-14T03:05:59;11.80;;;5.60;;
75297;SDS011;63896;45.990;18.688;2024-02-14T03:09:02;10.52;;;5.40;;
75297;SDS011;63896;45.990;18.688;2024-02-14T03:12:05;11.15;;;5.07;;
75297;SDS011;63896;45.990;18.688;2024-02-14T03:15:08;9.40;;;4.33;;
75297;SDS011;63896;45.990;18.688;2024-02-14T03:18:13;11.43;;;4.95;;
75297;SDS011;63896;45.990;18.688;2024-02-14T03:21:16;15.85;;;5.43;;
75297;SDS011;63896;45.990;18.688;2024-02-14T03:24:19;12.82;;;4.78;;
75297;SDS011;63896;45.990;18.688;2024-02-14T03:27:21;13.35;;;5.03;;
75297;SDS011;63896;45.990;18.688;2024-02-14T03:30:25;10.57;;;4.37;;
75297;SDS011;63896;45.990;18.688;2024-02-14T03:33:29;11.23;;;5.47;;
75297;SDS011;63896;45.990;18.688;2024-02-14T03:36:32;10.38;;;5.07;;
75297;SDS011;63896;45.990;18.688;2024-02-14T03:39:35;10.23;;;5.18;;
75297;SDS011;63896;45.990;18.688;2024-02-14T03:42:38;11.38;;;5.63;;
75297;SDS011;63896;45.990;18.688;2024-02-14T03:45:44;12.80;;;4.97;;
75297;SDS011;63896;45.990;18.688;2024-02-14T03:48:46;9.38;;;4.70;;
75297;SDS011;63896;45.990;18.688;2024-02-14T03:51:52;10.20;;;4.97;;
75297;SDS011;63896;45.990;18.688;2024-02-14T03:54:57;9.98;;;4.93;;
75297;SDS011;63896;45.990;18.688;2024-02-14T03:58:00;10.85;;;4.38;;
75297;SDS011;63896;45.990;18.688;2024-02-14T04:01:03;11.30;;;4.87;;
75297;SDS011;63896;45.990;18.688;2024-02-14T04:04:07;11.32;;;4.55;;
75297;SDS011;63896;45.990;18.688;2024-02-14T04:07:09;10.88;;;4.90;;
75297;SDS011;63896;45.990;18.688;2024-02-14T04:10:12;10.23;;;4.95;;
75297;SDS011;63896;45.990;18.688;2024-02-14T04:13:16;11.13;;;4.78;;
75297;SDS011;63896;45.990;18.688;2024-02-14T04:16:19;12.53;;;5.43;;
75297;SDS011;63896;45.990;18.688;2024-02-14T04:19:23;10.93;;;5.15;;
75297;SDS011;63896;45.990;18.688;2024-02-14T04:22:26;12.80;;;5.63;;
75297;SDS011;63896;45.990;18.688;2024-02-14T04:25:29;11.70;;;5.25;;
75297;SDS011;63896;45.990;18.688;2024-02-14T04:28:32;11.60;;;5.35;;
75297;SDS011;63896;45.990;18.688;2024-02-14T04:31:34;13.73;;;6.13;;
75297;SDS011;63896;45.990;18.688;2024-02-14T04:34:37;17.77;;;7.63;;
75297;SDS011;63896;45.990;18.688;2024-02-14T04:37:42;18.42;;;8.45;;
75297;SDS011;63896;45.990;18.688;2024-02-14T04:40:48;16.08;;;8.18;;
75297;SDS011;63896;45.990;18.688;2024-02-14T04:43:51;15.57;;;7.70;;
75297;SDS011;63896;45.990;18.688;2024-02-14T04:46:54;14.10;;;7.30;;
75297;SDS011;63896;45.990;18.688;2024-02-14T04:50:00;11.43;;;6.20;;
75297;SDS011;63896;45.990;18.688;2024-02-14T04:53:06;13.13;;;6.45;;
75297;SDS011;63896;45.990;18.688;2024-02-14T04:56:09;12.73;;;6.43;;
75297;SDS011;63896;45.990;18.688;2024-02-14T04:59:12;10.85;;;6.00;;
75297;SDS011;63896;45.990;18.688;2024-02-14T05:02:15;12.20;;;5.67;;
75297;SDS011;63896;45.990;18.688;2024-02-14T05:05:18;10.50;;;5.10;;
75297;SDS011;63896;45.990;18.688;2024-02-14T05:08:21;28.08;;;11.23;;
75297;SDS011;63896;45.990;18.688;2024-02-14T05:11:24;20.42;;;10.10;;
75297;SDS011;63896;45.990;18.688;2024-02-14T05:14:27;19.48;;;8.50;;
75297;SDS011;63896;45.990;18.688;2024-02-14T05:17:33;20.33;;;9.00;;
75297;SDS011;63896;45.990;18.688;2024-02-14T05:20:37;19.45;;;8.25;;
75297;SDS011;63896;45.990;18.688;2024-02-14T05:23:40;20.85;;;8.63;;
75297;SDS011;63896;45.990;18.688;2024-02-14T05:26:46;27.75;;;11.43;;
75297;SDS011;63896;45.990;18.688;2024-02-14T05:29:49;33.33;;;14.38;;
75297;SDS011;63896;45.990;18.688;2024-02-14T05:32:52;37.70;;;13.90;;
75297;SDS011;63896;45.990;18.688;2024-02-14T05:35:55;41.65;;;15.05;;
75297;SDS011;63896;45.990;18.688;2024-02-14T05:38:58;38.92;;;14.38;;
75297;SDS011;63896;45.990;18.688;2024-02-14T05:42:00;38.22;;;13.27;;
75297;SDS011;63896;45.990;18.688;2024-02-14T05:45:03;46.25;;;20.30;;
75297;SDS011;63896;45.990;18.688;2024-02-14T05:48:08;46.57;;;18.90;;
75297;SDS011;63896;45.990;18.688;2024-02-14T05:51:11;43.05;;;18.98;;
75297;SDS011;63896;45.990;18.688;2024-02-14T05:54:14;38.10;;;17.98;;
75297;SDS011;63896;45.990;18.688;2024-02-14T05:57:16;39.65;;;18.63;;
75297;SDS011;63896;45.990;18.688;2024-02-14T06:00:20;127.78;;;36.03;;
75297;SDS011;63896;45.990;18.688;2024-02-14T06:03:25;83.50;;;27.67;;
75297;SDS011;63896;45.990;18.688;2024-02-14T06:06:28;36.28;;;12.82;;
75297;SDS011;63896;45.990;18.688;2024-02-14T06:09:31;23.77;;;9.75;;
75297;SDS011;63896;45.990;18.688;2024-02-14T06:12:34;17.30;;;7.85;;
75297;SDS011;63896;45.990;18.688;2024-02-14T06:15:37;27.02;;;8.40;;
75297;SDS011;63896;45.990;18.688;2024-02-14T06:18:40;22.40;;;8.03;;
75297;SDS011;63896;45.990;18.688;2024-02-14T06:21:43;18.88;;;7.00;;
75297;SDS011;63896;45.990;18.688;2024-02-14T06:24:46;17.55;;;7.72;;
75297;SDS011;63896;45.990;18.688;2024-02-14T06:27:51;22.73;;;8.43;;
75297;SDS011;63896;45.990;18.688;2024-02-14T06:30:53;20.75;;;8.23;;
75297;SDS011;63896;45.990;18.688;2024-02-14T06:33:57;16.20;;;7.63;;
75297;SDS011;63896;45.990;18.688;2024-02-14T06:40:28;15.35;;;6.93;;
75297;SDS011;63896;45.990;18.688;2024-02-14T06:43:32;12.68;;;6.00;;
75297;SDS011;63896;45.990;18.688;2024-02-14T06:46:35;17.17;;;7.03;;
75297;SDS011;63896;45.990;18.688;2024-02-14T06:49:40;19.60;;;6.73;;
75297;SDS011;63896;45.990;18.688;2024-02-14T06:52:43;22.02;;;6.68;;
75297;SDS011;63896;45.990;18.688;2024-02-14T06:55:47;25.15;;;7.13;;
75297;SDS011;63896;45.990;18.688;2024-02-14T06:58:52;16.85;;;6.78;;
75297;SDS011;63896;45.990;18.688;2024-02-14T07:02:03;22.02;;;7.03;;
75297;SDS011;63896;45.990;18.688;2024-02-14T07:05:16;13.97;;;6.47;;
75297;SDS011;63896;45.990;18.688;2024-02-14T07:08:27;14.98;;;6.00;;
75297;SDS011;63896;45.990;18.688;2024-02-14T07:11:32;16.58;;;6.82;;
75297;SDS011;63896;45.990;18.688;2024-02-14T07:14:40;17.70;;;6.85;;
75297;SDS011;63896;45.990;18.688;2024-02-14T07:17:49;14.23;;;6.55;;
75297;SDS011;63896;45.990;18.688;2024-02-14T07:20:54;19.47;;;5.47;;
75297;SDS011;63896;45.990;18.688;2024-02-14T07:24:00;16.55;;;5.60;;
75297;SDS011;63896;45.990;18.688;2024-02-14T07:27:06;14.25;;;6.43;;
75297;SDS011;63896;45.990;18.688;2024-02-14T07:30:14;14.18;;;5.75;;
75297;SDS011;63896;45.990;18.688;2024-02-14T07:33:19;14.75;;;5.43;;
75297;SDS011;63896;45.990;18.688;2024-02-14T07:36:27;11.33;;;5.97;;
75297;SDS011;63896;45.990;18.688;2024-02-14T07:39:33;8.45;;;4.85;;
75297;SDS011;63896;45.990;18.688;2024-02-14T07:42:37;10.10;;;5.22;;
75297;SDS011;63896;45.990;18.688;2024-02-14T07:45:40;8.38;;;5.00;;
75297;SDS011;63896;45.990;18.688;2024-02-14T07:48:46;7.97;;;4.85;;
75297;SDS011;63896;45.990;18.688;2024-02-14T07:52:00;12.97;;;4.70;;
75297;SDS011;63896;45.990;18.688;2024-02-14T07:55:05;8.48;;;5.10;;
75297;SDS011;63896;45.990;18.688;2024-02-14T07:58:25;9.20;;;5.60;;
75297;SDS011;63896;45.990;18.688;2024-02-14T08:01:27;9.48;;;5.35;;
75297;SDS011;63896;45.990;18.688;2024-02-14T08:04:30;13.90;;;5.40;;
75297;SDS011;63896;45.990;18.688;2024-02-14T08:07:33;12.33;;;6.07;;
75297;SDS011;63896;45.990;18.688;2024-02-14T08:10:36;12.82;;;6.75;;
75297;SDS011;63896;45.990;18.688;2024-02-14T08:13:39;10.35;;;5.88;;
75297;SDS011;63896;45.990;18.688;2024-02-14T08:16:43;14.10;;;5.53;;
75297;SDS011;63896;45.990;18.688;2024-02-14T08:19:46;12.02;;;5.22;;
75297;SDS011;63896;45.990;18.688;2024-02-14T08:22:50;12.00;;;5.67;;
75297;SDS011;63896;45.990;18.688;2024-02-14T08:25:53;8.43;;;5.10;;
75297;SDS011;63896;45.990;18.688;2024-02-14T08:28:56;11.30;;;5.40;;
75297;SDS011;63896;45.990;18.688;2024-02-14T08:32:02;9.80;;;5.60;;
75297;SDS011;63896;45.990;18.688;2024-02-14T08:35:06;7.07;;;5.22;;
75297;SDS011;63896;45.990;18.688;2024-02-14T08:38:10;11.53;;;5.20;;
75297;SDS011;63896;45.990;18.688;2024-02-14T08:41:13;7.95;;;4.80;;
75297;SDS011;63896;45.990;18.688;2024-02-14T08:44:16;6.60;;;4.30;;
75297;SDS011;63896;45.990;18.688;2024-02-14T08:47:22;6.65;;;4.40;;
75297;SDS011;63896;45.990;18.688;2024-02-14T08:50:25;9.63;;;4.70;;
75297;SDS011;63896;45.990;18.688;2024-02-14T08:53:28;8.87;;;5.03;;
75297;SDS011;63896;45.990;18.688;2024-02-14T08:56:31;18.95;;;4.85;;
75297;SDS011;63896;45.990;18.688;2024-02-14T08:59:38;9.73;;;4.80;;
75297;SDS011;63896;45.990;18.688;2024-02-14T09:02:41;7.78;;;4.72;;
75297;SDS011;63896;45.990;18.688;2024-02-14T09:05:44;8.85;;;5.20;;
75297;SDS011;63896;45.990;18.688;2024-02-14T09:08:46;7.50;;;4.30;;
75297;SDS011;63896;45.990;18.688;2024-02-14T09:11:50;9.30;;;4.43;;
75297;SDS011;63896;45.990;18.688;2024-02-14T09:14:53;6.25;;;4.72;;
75297;SDS011;63896;45.990;18.688;2024-02-14T09:17:56;9.90;;;4.68;;
75297;SDS011;63896;45.990;18.688;2024-02-14T09:20:59;7.00;;;4.85;;
75297;SDS011;63896;45.990;18.688;2024-02-14T09:24:04;5.30;;;4.43;;
75297;SDS011;63896;45.990;18.688;2024-02-14T09:27:07;12.05;;;4.75;;
75297;SDS011;63896;45.990;18.688;2024-02-14T09:30:13;8.98;;;4.70;;
75297;SDS011;63896;45.990;18.688;2024-02-14T09:33:33;8.70;;;5.13;;
75297;SDS011;63896;45.990;18.688;2024-02-14T09:36:36;8.32;;;5.07;;
75297;SDS011;63896;45.990;18.688;2024-02-14T09:39:39;6.77;;;5.00;;
75297;SDS011;63896;45.990;18.688;2024-02-14T09:42:47;6.35;;;4.60;;
75297;SDS011;63896;45.990;18.688;2024-02-14T09:45:52;7.28;;;5.40;;
75297;SDS011;63896;45.990;18.688;2024-02-14T09:48:57;5.97;;;4.53;;
75297;SDS011;63896;45.990;18.688;2024-02-14T09:52:20;8.45;;;5.82;;
75297;SDS011;63896;45.990;18.688;2024-02-14T09:56:02;8.33;;;5.40;;
75297;SDS011;63896;45.990;18.688;2024-02-14T09:59:05;15.20;;;5.43;;
75297;SDS011;63896;45.990;18.688;2024-02-14T10:02:15;7.90;;;5.18;;
75297;SDS011;63896;45.990;18.688;2024-02-14T10:05:20;9.15;;;5.00;;
75297;SDS011;63896;45.990;18.688;2024-02-14T10:08:23;8.95;;;5.40;;
75297;SDS011;63896;45.990;18.688;2024-02-14T10:11:29;8.00;;;4.80;;
75297;SDS011;63896;45.990;18.688;2024-02-14T10:14:38;6.32;;;4.35;;
75297;SDS011;63896;45.990;18.688;2024-02-14T10:17:41;6.35;;;4.57;;
75297;SDS011;63896;45.990;18.688;2024-02-14T10:20:55;12.15;;;4.47;;
75297;SDS011;63896;45.990;18.688;2024-02-14T10:23:59;6.25;;;4.45;;
75297;SDS011;63896;45.990;18.688;2024-02-14T10:27:05;6.20;;;4.20;;
75297;SDS011;63896;45.990;18.688;2024-02-14T10:30:11;7.57;;;4.90;;
75297;SDS011;63896;45.990;18.688;2024-02-14T10:33:17;10.65;;;4.90;;
75297;SDS011;63896;45.990;18.688;2024-02-14T10:36:29;7.38;;;4.68;;
75297;SDS011;63896;45.990;18.688;2024-02-14T10:39:36;7.22;;;4.20;;
75297;SDS011;63896;45.990;18.688;2024-02-14T10:42:40;9.23;;;4.53;;
75297;SDS011;63896;45.990;18.688;2024-02-14T10:45:43;6.85;;;4.40;;
75297;SDS011;63896;45.990;18.688;2024-02-14T10:48:47;15.10;;;5.18;;
75297;SDS011;63896;45.990;18.688;2024-02-14T10:51:57;7.90;;;5.07;;
75297;SDS011;63896;45.990;18.688;2024-02-14T10:55:07;10.57;;;5.10;;
75297;SDS011;63896;45.990;18.688;2024-02-14T10:58:11;8.43;;;5.27;;
75297;SDS011;63896;45.990;18.688;2024-02-14T11:01:16;7.63;;;5.13;;
75297;SDS011;63896;45.990;18.688;2024-02-14T11:04:22;8.60;;;5.03;;
75297;SDS011;63896;45.990;18.688;2024-02-14T11:07:27;5.13;;;4.28;;
75297;SDS011;63896;45.990;18.688;2024-02-14T11:10:31;5.63;;;4.45;;
75297;SDS011;63896;45.990;18.688;2024-02-14T11:13:40;5.70;;;4.20;;
75297;SDS011;63896;45.990;18.688;2024-02-14T11:16:44;6.03;;;4.38;;
75297;SDS011;63896;45.990;18.688;2024-02-14T11:19:48;5.57;;;4.10;;
75297;SDS011;63896;45.990;18.688;2024-02-14T11:23:00;9.20;;;4.05;;
75297;SDS011;63896;45.990;18.688;2024-02-14T11:26:06;5.72;;;3.72;;
75297;SDS011;63896;45.990;18.688;2024-02-14T11:29:13;4.67;;;3.60;;
75297;SDS011;63896;45.990;18.688;2024-02-14T11:32:24;5.13;;;3.78;;
75297;SDS011;63896;45.990;18.688;2024-02-14T11:35:33;18.48;;;4.72;;
75297;SDS011;63896;45.990;18.688;2024-02-14T11:38:36;6.38;;;4.40;;
75297;SDS011;63896;45.990;18.688;2024-02-14T11:41:41;4.95;;;3.50;;
75297;SDS011;63896;45.990;18.688;2024-02-14T11:44:47;6.23;;;4.20;;
75297;SDS011;63896;45.990;18.688;2024-02-14T11:47:50;5.82;;;4.53;;
75297;SDS011;63896;45.990;18.688;2024-02-14T11:50:53;6.43;;;4.50;;
75297;SDS011;63896;45.990;18.688;2024-02-14T11:54:03;6.25;;;3.92;;
75297;SDS011;63896;45.990;18.688;2024-02-14T11:57:09;9.25;;;3.85;;
75297;SDS011;63896;45.990;18.688;2024-02-14T12:00:12;6.03;;;4.20;;
75297;SDS011;63896;45.990;18.688;2024-02-14T12:03:19;10.38;;;5.57;;
75297;SDS011;63896;45.990;18.688;2024-02-14T12:06:24;6.25;;;4.28;;
75297;SDS011;63896;45.990;18.688;2024-02-14T12:09:30;6.53;;;4.13;;
75297;SDS011;63896;45.990;18.688;2024-02-14T12:12:33;6.15;;;4.53;;
75297;SDS011;63896;45.990;18.688;2024-02-14T12:15:44;8.70;;;5.17;;
75297;SDS011;63896;45.990;18.688;2024-02-14T12:18:47;8.35;;;5.07;;
75297;SDS011;63896;45.990;18.688;2024-02-14T12:21:52;8.02;;;4.75;;
75297;SDS011;63896;45.990;18.688;2024-02-14T12:24:57;9.18;;;5.13;;
75297;SDS011;63896;45.990;18.688;2024-02-14T12:28:00;5.22;;;4.35;;
75297;SDS011;63896;45.990;18.688;2024-02-14T12:31:06;8.73;;;5.00;;
75297;SDS011;63896;45.990;18.688;2024-02-14T12:34:10;9.32;;;5.90;;
75297;SDS011;63896;45.990;18.688;2024-02-14T12:37:13;12.27;;;5.82;;
75297;SDS011;63896;45.990;18.688;2024-02-14T12:40:19;8.23;;;5.13;;
75297;SDS011;63896;45.990;18.688;2024-02-14T12:43:25;9.00;;;4.80;;
75297;SDS011;63896;45.990;18.688;2024-02-14T12:46:28;11.37;;;4.03;;
75297;SDS011;63896;45.990;18.688;2024-02-14T12:49:34;14.25;;;4.18;;
75297;SDS011;63896;45.990;18.688;2024-02-14T12:52:40;7.63;;;4.30;;
75297;SDS011;63896;45.990;18.688;2024-02-14T12:55:44;6.00;;;4.32;;
75297;SDS011;63896;45.990;18.688;2024-02-14T12:58:49;5.75;;;3.92;;
75297;SDS011;63896;45.990;18.688;2024-02-14T13:01:52;8.40;;;4.67;;
75297;SDS011;63896;45.990;18.688;2024-02-14T13:04:55;7.43;;;4.40;;
75297;SDS011;63896;45.990;18.688;2024-02-14T13:07:58;7.22;;;4.60;;
75297;SDS011;63896;45.990;18.688;2024-02-14T13:11:03;10.15;;;6.00;;
75297;SDS011;63896;45.990;18.688;2024-02-14T13:14:06;6.57;;;4.07;;
75297;SDS011;63896;45.990;18.688;2024-02-14T13:17:08;10.97;;;3.93;;
75297;SDS011;63896;45.990;18.688;2024-02-14T13:20:14;6.53;;;3.90;;
75297;SDS011;63896;45.990;18.688;2024-02-14T13:23:21;12.40;;;5.90;;
75297;SDS011;63896;45.990;18.688;2024-02-14T13:26:24;9.48;;;5.30;;
75297;SDS011;63896;45.990;18.688;2024-02-14T13:29:28;6.78;;;3.72;;
75297;SDS011;63896;45.990;18.688;2024-02-14T13:32:33;11.13;;;4.60;;
75297;SDS011;63896;45.990;18.688;2024-02-14T13:35:36;7.55;;;4.05;;
75297;SDS011;63896;45.990;18.688;2024-02-14T13:38:40;6.57;;;3.88;;
75297;SDS011;63896;45.990;18.688;2024-02-14T13:41:43;5.50;;;3.10;;
75297;SDS011;63896;45.990;18.688;2024-02-14T13:44:47;5.43;;;3.80;;
75297;SDS011;63896;45.990;18.688;2024-02-14T13:47:50;9.70;;;4.57;;
75297;SDS011;63896;45.990;18.688;2024-02-14T13:50:53;6.82;;;3.95;;
75297;SDS011;63896;45.990;18.688;2024-02-14T13:53:56;7.35;;;4.60;;
75297;SDS011;63896;45.990;18.688;2024-02-14T13:56:59;9.13;;;5.07;;
75297;SDS011;63896;45.990;18.688;2024-02-14T14:00:07;8.25;;;3.60;;
75297;SDS011;63896;45.990;18.688;2024-02-14T14:03:14;6.50;;;3.70;;
75297;SDS011;63896;45.990;18.688;2024-02-14T14:06:18;7.13;;;3.70;;
75297;SDS011;63896;45.990;18.688;2024-02-14T14:09:21;9.85;;;4.05;;
75297;SDS011;63896;45.990;18.688;2024-02-14T14:12:24;7.85;;;4.13;;
75297;SDS011;63896;45.990;18.688;2024-02-14T14:15:30;7.40;;;4.10;;
75297;SDS011;63896;45.990;18.688;2024-02-14T14:18:35;11.07;;;4.73;;
75297;SDS011;63896;45.990;18.688;2024-02-14T14:21:38;8.15;;;3.85;;
75297;SDS011;63896;45.990;18.688;2024-02-14T14:24:42;10.13;;;4.63;;
75297;SDS011;63896;45.990;18.688;2024-02-14T14:27:45;8.95;;;4.45;;
75297;SDS011;63896;45.990;18.688;2024-02-14T14:30:48;12.02;;;7.93;;
75297;SDS011;63896;45.990;18.688;2024-02-14T14:33:53;6.63;;;4.00;;
75297;SDS011;63896;45.990;18.688;2024-02-14T14:36:56;6.22;;;4.20;;
75297;SDS011;63896;45.990;18.688;2024-02-14T14:39:59;10.02;;;5.05;;
75297;SDS011;63896;45.990;18.688;2024-02-14T14:43:03;13.75;;;7.55;;
75297;SDS011;63896;45.990;18.688;2024-02-14T14:46:06;16.55;;;5.85;;
75297;SDS011;63896;45.990;18.688;2024-02-14T14:49:09;7.47;;;4.70;;
75297;SDS011;63896;45.990;18.688;2024-02-14T14:52:12;11.68;;;5.32;;
75297;SDS011;63896;45.990;18.688;2024-02-14T14:55:15;18.27;;;6.35;;
75297;SDS011;63896;45.990;18.688;2024-02-14T14:58:18;14.38;;;5.03;;
75297;SDS011;63896;45.990;18.688;2024-02-14T15:01:21;21.30;;;7.60;;
75297;SDS011;63896;45.990;18.688;2024-02-14T15:04:24;16.60;;;7.17;;
75297;SDS011;63896;45.990;18.688;2024-02-14T15:07:27;11.50;;;5.53;;
75297;SDS011;63896;45.990;18.688;2024-02-14T15:10:29;10.77;;;5.40;;
75297;SDS011;63896;45.990;18.688;2024-02-14T15:13:32;8.73;;;3.95;;
75297;SDS011;63896;45.990;18.688;2024-02-14T15:16:35;13.27;;;5.35;;
75297;SDS011;63896;45.990;18.688;2024-02-14T15:19:38;9.47;;;4.87;;
75297;SDS011;63896;45.990;18.688;2024-02-14T15:22:41;11.05;;;4.63;;
75297;SDS011;63896;45.990;18.688;2024-02-14T15:25:44;8.85;;;4.80;;
75297;SDS011;63896;45.990;18.688;2024-02-14T15:28:50;10.45;;;5.47;;
75297;SDS011;63896;45.990;18.688;2024-02-14T15:32:13;13.77;;;5.82;;
75297;SDS011;63896;45.990;18.688;2024-02-14T15:35:35;9.87;;;5.30;;
75297;SDS011;63896;45.990;18.688;2024-02-14T15:38:38;10.98;;;6.30;;
75297;SDS011;63896;45.990;18.688;2024-02-14T15:41:41;16.88;;;7.45;;
75297;SDS011;63896;45.990;18.688;2024-02-14T15:44:44;15.48;;;7.55;;
75297;SDS011;63896;45.990;18.688;2024-02-14T15:47:46;16.95;;;7.95;;
75297;SDS011;63896;45.990;18.688;2024-02-14T15:50:49;18.10;;;9.10;;
75297;SDS011;63896;45.990;18.688;2024-02-14T15:53:52;21.83;;;8.35;;
75297;SDS011;63896;45.990;18.688;2024-02-14T15:56:55;13.00;;;6.65;;
75297;SDS011;63896;45.990;18.688;2024-02-14T15:59:58;14.98;;;8.00;;
75297;SDS011;63896;45.990;18.688;2024-02-14T16:03:01;14.15;;;7.18;;
75297;SDS011;63896;45.990;18.688;2024-02-14T16:06:05;14.90;;;7.80;;
75297;SDS011;63896;45.990;18.688;2024-02-14T16:09:08;16.90;;;7.18;;
75297;SDS011;63896;45.990;18.688;2024-02-14T16:12:11;13.68;;;6.60;;
75297;SDS011;63896;45.990;18.688;2024-02-14T16:15:15;18.10;;;8.30;;
75297;SDS011;63896;45.990;18.688;2024-02-14T16:18:23;23.88;;;11.18;;
75297;SDS011;63896;45.990;18.688;2024-02-14T16:21:27;20.47;;;9.47;;
75297;SDS011;63896;45.990;18.688;2024-02-14T16:24:30;15.50;;;8.55;;
75297;SDS011;63896;45.990;18.688;2024-02-14T16:27:34;24.88;;;9.13;;
75297;SDS011;63896;45.990;18.688;2024-02-14T16:30:38;13.48;;;6.45;;
75297;SDS011;63896;45.990;18.688;2024-02-14T16:33:41;18.23;;;10.23;;
75297;SDS011;63896;45.990;18.688;2024-02-14T16:36:45;35.63;;;17.03;;
75297;SDS011;63896;45.990;18.688;2024-02-14T16:39:47;41.40;;;19.35;;
75297;SDS011;63896;45.990;18.688;2024-02-14T16:42:51;35.97;;;17.30;;
75297;SDS011;63896;45.990;18.688;2024-02-14T16:45:54;40.42;;;18.42;;
75297;SDS011;63896;45.990;18.688;2024-02-14T16:48:57;40.85;;;20.58;;
75297;SDS011;63896;45.990;18.688;2024-02-14T16:52:01;59.67;;;27.27;;
75297;SDS011;63896;45.990;18.688;2024-02-14T16:55:04;93.40;;;39.22;;
75297;SDS011;63896;45.990;18.688;2024-02-14T16:58:09;152.27;;;68.78;;
75297;SDS011;63896;45.990;18.688;2024-02-14T17:01:12;108.45;;;52.45;;
75297;SDS011;63896;45.990;18.688;2024-02-14T17:04:15;90.65;;;42.17;;
75297;SDS011;63896;45.990;18.688;2024-02-14T17:07:18;86.53;;;43.30;;
75297;SDS011;63896;45.990;18.688;2024-02-14T17:10:21;104.47;;;48.60;;
75297;SDS011;63896;45.990;18.688;2024-02-14T17:13:24;107.28;;;54.42;;
75297;SDS011;63896;45.990;18.688;2024-02-14T17:16:27;120.93;;;59.67;;
75297;SDS011;63896;45.990;18.688;2024-02-14T17:19:33;125.20;;;59.65;;
75297;SDS011;63896;45.990;18.688;2024-02-14T17:22:40;123.80;;;57.90;;
75297;SDS011;63896;45.990;18.688;2024-02-14T17:25:43;116.70;;;56.97;;
75297;SDS011;63896;45.990;18.688;2024-02-14T17:28:46;119.32;;;61.63;;
75297;SDS011;63896;45.990;18.688;2024-02-14T17:31:49;111.78;;;60.33;;
75297;SDS011;63896;45.990;18.688;2024-02-14T17:34:53;133.80;;;70.30;;
75297;SDS011;63896;45.990;18.688;2024-02-14T17:37:56;113.27;;;62.53;;
75297;SDS011;63896;45.990;18.688;2024-02-14T17:40:58;104.35;;;55.17;;
75297;SDS011;63896;45.990;18.688;2024-02-14T17:44:01;146.30;;;69.80;;
75297;SDS011;63896;45.990;18.688;2024-02-14T17:47:05;117.03;;;56.92;;
75297;SDS011;63896;45.990;18.688;2024-02-14T17:50:08;104.85;;;53.60;;
75297;SDS011;63896;45.990;18.688;2024-02-14T17:53:12;116.30;;;60.33;;
75297;SDS011;63896;45.990;18.688;2024-02-14T17:56:15;111.18;;;59.33;;
75297;SDS011;63896;45.990;18.688;2024-02-14T17:59:18;115.57;;;60.35;;
75297;SDS011;63896;45.990;18.688;2024-02-14T18:02:21;150.23;;;78.75;;
75297;SDS011;63896;45.990;18.688;2024-02-14T18:05:24;166.90;;;86.63;;